sensor_id;sensor_type;location;lat;lon;timestamp;pressure;altitude;pressure_sealevel;temperature;humidity
57250;BME280;43102;52.014;-0.680;2023-03-12T00:00:00;99603;;;6.51;82.30
57250;BME280;43102;52.014;-0.680;2023-03-12T00:01:00;99603;;;6.51;82.30
57250;BME280;43102;52.014;-0.680;2023-03-12T00:02:00;99614;;;6.62;82.31
57250;BME280;43102;52.014;-0.680;2023-03-12T00:03:00;99614;;;6.62;82.31
57250;BME280;43102;52.014;-0.680;2023-03-12T00:04:00;99614;;;6.62;82.31
57250;BME280;43102;52.014;-0.680;2023-03-12T00:05:00;99614;;;6.62;82.31
57250;BME280;43102;52.014;-0.680;2023-03-12T00:06:01;99614;;;6.62;82.31
57250;BME280;43102;52.014;-0.680;2023-03-12T00:07:00;99620;;;6.60;82.67
57250;BME280;43102;52.014;-0.680;2023-03-12T00:08:00;99620;;;6.60;82.67
57250;BME280;43102;52.014;-0.680;2023-03-12T00:09:00;99620;;;6.60;82.67
57250;BME280;43102;52.014;-0.680;2023-03-12T00:10:00;99620;;;6.60;82.67
57250;BME280;43102;52.014;-0.680;2023-03-12T00:11:04;99620;;;6.60;82.67
57250;BME280;43102;52.014;-0.680;2023-03-12T00:12:00;99609;;;6.67;81.91
57250;BME280;43102;52.014;-0.680;2023-03-12T00:13:00;99609;;;6.67;81.91
57250;BME280;43102;52.014;-0.680;2023-03-12T00:14:00;99609;;;6.67;81.91
57250;BME280;43102;52.014;-0.680;2023-03-12T00:15:00;99609;;;6.67;81.91
57250;BME280;43102;52.014;-0.680;2023-03-12T00:16:02;99609;;;6.67;81.91
57250;BME280;43102;52.014;-0.680;2023-03-12T00:17:00;99616;;;6.71;82.10
57250;BME280;43102;52.014;-0.680;2023-03-12T00:18:00;99616;;;6.71;82.10
57250;BME280;43102;52.014;-0.680;2023-03-12T00:19:00;99616;;;6.71;82.10
57250;BME280;43102;52.014;-0.680;2023-03-12T00:20:00;99616;;;6.71;82.10
57250;BME280;43102;52.014;-0.680;2023-03-12T00:21:00;99616;;;6.71;82.10
57250;BME280;43102;52.014;-0.680;2023-03-12T00:22:00;99612;;;6.71;82.73
57250;BME280;43102;52.014;-0.680;2023-03-12T00:23:00;99612;;;6.71;82.73
57250;BME280;43102;52.014;-0.680;2023-03-12T00:24:00;99612;;;6.71;82.73
57250;BME280;43102;52.014;-0.680;2023-03-12T00:25:00;99612;;;6.71;82.73
57250;BME280;43102;52.014;-0.680;2023-03-12T00:26:01;99612;;;6.71;82.73
57250;BME280;43102;52.014;-0.680;2023-03-12T00:27:00;99613;;;6.76;82.47
57250;BME280;43102;52.014;-0.680;2023-03-12T00:28:00;99613;;;6.76;82.47
57250;BME280;43102;52.014;-0.680;2023-03-12T00:29:00;99613;;;6.76;82.47
57250;BME280;43102;52.014;-0.680;2023-03-12T00:30:00;99613;;;6.76;82.47
57250;BME280;43102;52.014;-0.680;2023-03-12T00:31:00;99613;;;6.76;82.47
57250;BME280;43102;52.014;-0.680;2023-03-12T00:32:00;99623;;;6.84;82.45
57250;BME280;43102;52.014;-0.680;2023-03-12T00:33:00;99623;;;6.84;82.45
57250;BME280;43102;52.014;-0.680;2023-03-12T00:34:00;99623;;;6.84;82.45
57250;BME280;43102;52.014;-0.680;2023-03-12T00:35:00;99623;;;6.84;82.45
57250;BME280;43102;52.014;-0.680;2023-03-12T00:36:00;99623;;;6.84;82.45
57250;BME280;43102;52.014;-0.680;2023-03-12T00:37:00;99625;;;6.94;81.97
57250;BME280;43102;52.014;-0.680;2023-03-12T00:38:00;99625;;;6.94;81.97
57250;BME280;43102;52.014;-0.680;2023-03-12T00:39:00;99625;;;6.94;81.97
57250;BME280;43102;52.014;-0.680;2023-03-12T00:40:00;99625;;;6.94;81.97
57250;BME280;43102;52.014;-0.680;2023-03-12T00:41:00;99625;;;6.94;81.97
57250;BME280;43102;52.014;-0.680;2023-03-12T00:42:00;99625;;;6.92;82.47
57250;BME280;43102;52.014;-0.680;2023-03-12T00:43:00;99625;;;6.92;82.47
57250;BME280;43102;52.014;-0.680;2023-03-12T00:44:00;99625;;;6.92;82.47
57250;BME280;43102;52.014;-0.680;2023-03-12T00:45:00;99625;;;6.92;82.47
57250;BME280;43102;52.014;-0.680;2023-03-12T00:46:00;99625;;;6.92;82.47
57250;BME280;43102;52.014;-0.680;2023-03-12T00:47:00;99623;;;7.06;82.38
57250;BME280;43102;52.014;-0.680;2023-03-12T00:48:00;99623;;;7.06;82.38
57250;BME280;43102;52.014;-0.680;2023-03-12T00:49:00;99623;;;7.06;82.38
57250;BME280;43102;52.014;-0.680;2023-03-12T00:50:00;99623;;;7.06;82.38
57250;BME280;43102;52.014;-0.680;2023-03-12T00:51:00;99623;;;7.06;82.38
57250;BME280;43102;52.014;-0.680;2023-03-12T00:52:00;99627;;;7.13;82.65
57250;BME280;43102;52.014;-0.680;2023-03-12T00:53:00;99627;;;7.13;82.65
57250;BME280;43102;52.014;-0.680;2023-03-12T00:54:00;99627;;;7.13;82.65
57250;BME280;43102;52.014;-0.680;2023-03-12T00:55:00;99627;;;7.13;82.65
57250;BME280;43102;52.014;-0.680;2023-03-12T00:56:00;99627;;;7.13;82.65
57250;BME280;43102;52.014;-0.680;2023-03-12T00:57:00;99634;;;7.15;83.02
57250;BME280;43102;52.014;-0.680;2023-03-12T00:58:00;99634;;;7.15;83.02
57250;BME280;43102;52.014;-0.680;2023-03-12T00:59:00;99634;;;7.15;83.02
57250;BME280;43102;52.014;-0.680;2023-03-12T01:00:00;99634;;;7.15;83.02
57250;BME280;43102;52.014;-0.680;2023-03-12T01:01:00;99634;;;7.15;83.02
57250;BME280;43102;52.014;-0.680;2023-03-12T01:02:00;99631;;;7.23;82.76
57250;BME280;43102;52.014;-0.680;2023-03-12T01:03:00;99631;;;7.23;82.76
57250;BME280;43102;52.014;-0.680;2023-03-12T01:04:00;99631;;;7.23;82.76
57250;BME280;43102;52.014;-0.680;2023-03-12T01:05:00;99631;;;7.23;82.76
57250;BME280;43102;52.014;-0.680;2023-03-12T01:06:00;99631;;;7.23;82.76
57250;BME280;43102;52.014;-0.680;2023-03-12T01:07:00;99632;;;7.33;82.55
57250;BME280;43102;52.014;-0.680;2023-03-12T01:08:00;99632;;;7.33;82.55
57250;BME280;43102;52.014;-0.680;2023-03-12T01:09:01;99632;;;7.33;82.55
57250;BME280;43102;52.014;-0.680;2023-03-12T01:10:00;99632;;;7.33;82.55
57250;BME280;43102;52.014;-0.680;2023-03-12T01:11:00;99632;;;7.33;82.55
57250;BME280;43102;52.014;-0.680;2023-03-12T01:12:00;99626;;;7.48;83.83
57250;BME280;43102;52.014;-0.680;2023-03-12T01:13:00;99626;;;7.48;83.83
57250;BME280;43102;52.014;-0.680;2023-03-12T01:14:00;99626;;;7.48;83.83
57250;BME280;43102;52.014;-0.680;2023-03-12T01:15:00;99626;;;7.48;83.83
57250;BME280;43102;52.014;-0.680;2023-03-12T01:16:00;99626;;;7.48;83.83
57250;BME280;43102;52.014;-0.680;2023-03-12T01:17:00;99626;;;7.68;83.83
57250;BME280;43102;52.014;-0.680;2023-03-12T01:18:00;99626;;;7.68;83.90
57250;BME280;43102;52.014;-0.680;2023-03-12T01:19:01;99626;;;7.68;83.90
57250;BME280;43102;52.014;-0.680;2023-03-12T01:20:00;99626;;;7.68;83.90
57250;BME280;43102;52.014;-0.680;2023-03-12T01:21:00;99626;;;7.68;83.90
57250;BME280;43102;52.014;-0.680;2023-03-12T01:22:00;99625;;;7.85;84.22
57250;BME280;43102;52.014;-0.680;2023-03-12T01:23:00;99625;;;7.85;84.22
57250;BME280;43102;52.014;-0.680;2023-03-12T01:24:00;99625;;;7.85;84.22
57250;BME280;43102;52.014;-0.680;2023-03-12T01:25:00;99625;;;7.85;84.22
57250;BME280;43102;52.014;-0.680;2023-03-12T01:26:00;99625;;;7.85;84.22
57250;BME280;43102;52.014;-0.680;2023-03-12T01:27:00;99616;;;7.90;83.79
57250;BME280;43102;52.014;-0.680;2023-03-12T01:28:00;99616;;;7.90;83.79
57250;BME280;43102;52.014;-0.680;2023-03-12T01:29:00;99616;;;7.90;83.79
57250;BME280;43102;52.014;-0.680;2023-03-12T01:30:00;99616;;;7.90;83.79
57250;BME280;43102;52.014;-0.680;2023-03-12T01:31:08;99616;;;7.90;83.79
57250;BME280;43102;52.014;-0.680;2023-03-12T01:32:00;99617;;;7.99;84.33
57250;BME280;43102;52.014;-0.680;2023-03-12T01:33:00;99617;;;7.99;84.33
57250;BME280;43102;52.014;-0.680;2023-03-12T01:34:00;99617;;;7.99;84.33
57250;BME280;43102;52.014;-0.680;2023-03-12T01:35:00;99617;;;7.99;84.33
57250;BME280;43102;52.014;-0.680;2023-03-12T01:36:00;99617;;;7.99;84.33
57250;BME280;43102;52.014;-0.680;2023-03-12T01:37:00;99625;;;8.09;84.16
57250;BME280;43102;52.014;-0.680;2023-03-12T01:38:00;99625;;;8.09;84.16
57250;BME280;43102;52.014;-0.680;2023-03-12T01:39:00;99625;;;8.09;84.16
57250;BME280;43102;52.014;-0.680;2023-03-12T01:40:00;99625;;;8.09;84.16
57250;BME280;43102;52.014;-0.680;2023-03-12T01:41:00;99625;;;8.09;84.16
57250;BME280;43102;52.014;-0.680;2023-03-12T01:42:00;99624;;;8.15;83.41
57250;BME280;43102;52.014;-0.680;2023-03-12T01:43:18;99624;;;8.15;83.41
57250;BME280;43102;52.014;-0.680;2023-03-12T01:44:00;99624;;;8.15;83.41
57250;BME280;43102;52.014;-0.680;2023-03-12T01:45:02;99624;;;8.15;83.41
57250;BME280;43102;52.014;-0.680;2023-03-12T01:47:00;99613;;;8.20;83.07
57250;BME280;43102;52.014;-0.680;2023-03-12T01:48:00;99613;;;8.20;83.07
57250;BME280;43102;52.014;-0.680;2023-03-12T01:49:08;99613;;;8.20;83.07
57250;BME280;43102;52.014;-0.680;2023-03-12T01:50:00;99613;;;8.20;83.07
57250;BME280;43102;52.014;-0.680;2023-03-12T01:51:00;99613;;;8.20;83.07
57250;BME280;43102;52.014;-0.680;2023-03-12T01:52:01;99616;;;8.24;83.70
57250;BME280;43102;52.014;-0.680;2023-03-12T01:53:00;99616;;;8.24;83.70
57250;BME280;43102;52.014;-0.680;2023-03-12T01:54:01;99616;;;8.24;83.70
57250;BME280;43102;52.014;-0.680;2023-03-12T01:55:02;99616;;;8.24;83.70
57250;BME280;43102;52.014;-0.680;2023-03-12T01:56:00;99616;;;8.24;83.70
57250;BME280;43102;52.014;-0.680;2023-03-12T01:57:01;99608;;;8.27;83.37
57250;BME280;43102;52.014;-0.680;2023-03-12T01:58:00;99608;;;8.27;83.37
57250;BME280;43102;52.014;-0.680;2023-03-12T01:59:01;99608;;;8.27;83.37
57250;BME280;43102;52.014;-0.680;2023-03-12T02:00:05;99608;;;8.27;83.37
57250;BME280;43102;52.014;-0.680;2023-03-12T02:01:00;99608;;;8.27;83.37
57250;BME280;43102;52.014;-0.680;2023-03-12T02:02:00;99619;;;8.31;83.29
57250;BME280;43102;52.014;-0.680;2023-03-12T02:03:02;99619;;;8.31;83.29
57250;BME280;43102;52.014;-0.680;2023-03-12T02:04:00;99619;;;8.31;83.29
57250;BME280;43102;52.014;-0.680;2023-03-12T02:06:02;99619;;;8.31;83.29
57250;BME280;43102;52.014;-0.680;2023-03-12T02:08:00;99620;;;8.36;83.37
57250;BME280;43102;52.014;-0.680;2023-03-12T02:09:00;99620;;;8.36;83.37
57250;BME280;43102;52.014;-0.680;2023-03-12T02:10:00;99620;;;8.36;83.37
57250;BME280;43102;52.014;-0.680;2023-03-12T02:11:00;99620;;;8.36;83.37
57250;BME280;43102;52.014;-0.680;2023-03-12T02:12:00;99616;;;8.41;83.89
57250;BME280;43102;52.014;-0.680;2023-03-12T02:13:00;99616;;;8.41;83.89
57250;BME280;43102;52.014;-0.680;2023-03-12T02:14:00;99616;;;8.41;83.89
57250;BME280;43102;52.014;-0.680;2023-03-12T02:15:00;99616;;;8.41;83.89
57250;BME280;43102;52.014;-0.680;2023-03-12T02:16:00;99616;;;8.41;83.89
57250;BME280;43102;52.014;-0.680;2023-03-12T02:17:00;99622;;;8.49;83.63
57250;BME280;43102;52.014;-0.680;2023-03-12T02:18:02;99622;;;8.49;83.63
57250;BME280;43102;52.014;-0.680;2023-03-12T02:19:00;99622;;;8.49;83.63
57250;BME280;43102;52.014;-0.680;2023-03-12T02:21:18;99622;;;8.49;83.63
57250;BME280;43102;52.014;-0.680;2023-03-12T02:22:01;99626;;;8.55;83.82
57250;BME280;43102;52.014;-0.680;2023-03-12T02:23:18;99626;;;8.55;83.82
57250;BME280;43102;52.014;-0.680;2023-03-12T02:26:00;99626;;;8.55;83.82
57250;BME280;43102;52.014;-0.680;2023-03-12T02:27:00;99614;;;8.62;83.56
57250;BME280;43102;52.014;-0.680;2023-03-12T02:28:01;99614;;;8.62;83.56
57250;BME280;43102;52.014;-0.680;2023-03-12T02:29:00;99614;;;8.62;83.56
57250;BME280;43102;52.014;-0.680;2023-03-12T02:30:00;99614;;;8.62;83.56
57250;BME280;43102;52.014;-0.680;2023-03-12T02:31:01;99614;;;8.62;83.56
57250;BME280;43102;52.014;-0.680;2023-03-12T02:32:00;99622;;;8.64;83.52
57250;BME280;43102;52.014;-0.680;2023-03-12T02:33:01;99622;;;8.64;83.52
57250;BME280;43102;52.014;-0.680;2023-03-12T02:34:00;99622;;;8.64;83.52
57250;BME280;43102;52.014;-0.680;2023-03-12T02:35:00;99622;;;8.64;83.52
57250;BME280;43102;52.014;-0.680;2023-03-12T02:36:00;99622;;;8.64;83.52
57250;BME280;43102;52.014;-0.680;2023-03-12T02:37:00;99617;;;8.76;83.72
57250;BME280;43102;52.014;-0.680;2023-03-12T02:38:00;99617;;;8.76;83.72
57250;BME280;43102;52.014;-0.680;2023-03-12T02:39:00;99617;;;8.76;83.72
57250;BME280;43102;52.014;-0.680;2023-03-12T02:40:04;99617;;;8.76;83.72
57250;BME280;43102;52.014;-0.680;2023-03-12T02:41:01;99617;;;8.76;83.72
57250;BME280;43102;52.014;-0.680;2023-03-12T02:42:00;99608;;;8.80;83.65
57250;BME280;43102;52.014;-0.680;2023-03-12T02:43:00;99608;;;8.80;83.65
57250;BME280;43102;52.014;-0.680;2023-03-12T02:44:04;99608;;;8.80;83.65
57250;BME280;43102;52.014;-0.680;2023-03-12T02:45:00;99608;;;8.80;83.65
57250;BME280;43102;52.014;-0.680;2023-03-12T02:46:00;99608;;;8.80;83.65
57250;BME280;43102;52.014;-0.680;2023-03-12T02:47:00;99604;;;8.84;83.96
57250;BME280;43102;52.014;-0.680;2023-03-12T02:48:00;99604;;;8.84;83.96
57250;BME280;43102;52.014;-0.680;2023-03-12T02:49:00;99604;;;8.84;83.96
57250;BME280;43102;52.014;-0.680;2023-03-12T02:50:00;99604;;;8.84;83.96
57250;BME280;43102;52.014;-0.680;2023-03-12T02:51:00;99604;;;8.84;83.96
57250;BME280;43102;52.014;-0.680;2023-03-12T02:52:00;99618;;;8.87;84.24
57250;BME280;43102;52.014;-0.680;2023-03-12T02:53:00;99618;;;8.87;84.24
57250;BME280;43102;52.014;-0.680;2023-03-12T02:54:00;99618;;;8.87;84.24
57250;BME280;43102;52.014;-0.680;2023-03-12T02:55:00;99618;;;8.87;84.24
57250;BME280;43102;52.014;-0.680;2023-03-12T02:56:00;99618;;;8.87;84.24
57250;BME280;43102;52.014;-0.680;2023-03-12T02:57:00;99626;;;8.83;83.82
57250;BME280;43102;52.014;-0.680;2023-03-12T02:58:00;99626;;;8.83;83.82
57250;BME280;43102;52.014;-0.680;2023-03-12T02:59:00;99626;;;8.83;83.82
57250;BME280;43102;52.014;-0.680;2023-03-12T03:00:00;99626;;;8.83;83.82
57250;BME280;43102;52.014;-0.680;2023-03-12T03:01:00;99626;;;8.83;83.82
57250;BME280;43102;52.014;-0.680;2023-03-12T03:02:00;99624;;;8.89;83.48
57250;BME280;43102;52.014;-0.680;2023-03-12T03:03:00;99624;;;8.89;83.48
57250;BME280;43102;52.014;-0.680;2023-03-12T03:04:01;99624;;;8.89;83.48
57250;BME280;43102;52.014;-0.680;2023-03-12T03:05:00;99624;;;8.89;83.48
57250;BME280;43102;52.014;-0.680;2023-03-12T03:06:00;99624;;;8.89;83.48
57250;BME280;43102;52.014;-0.680;2023-03-12T03:07:00;99620;;;8.85;83.33
57250;BME280;43102;52.014;-0.680;2023-03-12T03:08:00;99620;;;8.85;83.33
57250;BME280;43102;52.014;-0.680;2023-03-12T03:09:00;99620;;;8.85;83.33
57250;BME280;43102;52.014;-0.680;2023-03-12T03:10:00;99620;;;8.85;83.33
57250;BME280;43102;52.014;-0.680;2023-03-12T03:11:00;99620;;;8.85;83.33
57250;BME280;43102;52.014;-0.680;2023-03-12T03:12:00;99616;;;8.80;82.98
57250;BME280;43102;52.014;-0.680;2023-03-12T03:13:00;99616;;;8.80;82.98
57250;BME280;43102;52.014;-0.680;2023-03-12T03:14:00;99616;;;8.80;82.98
57250;BME280;43102;52.014;-0.680;2023-03-12T03:15:00;99616;;;8.80;82.98
57250;BME280;43102;52.014;-0.680;2023-03-12T03:16:00;99616;;;8.80;82.98
57250;BME280;43102;52.014;-0.680;2023-03-12T03:17:00;99616;;;8.79;83.90
57250;BME280;43102;52.014;-0.680;2023-03-12T03:18:00;99616;;;8.79;83.90
57250;BME280;43102;52.014;-0.680;2023-03-12T03:19:00;99616;;;8.79;83.90
57250;BME280;43102;52.014;-0.680;2023-03-12T03:20:00;99616;;;8.79;83.90
57250;BME280;43102;52.014;-0.680;2023-03-12T03:21:02;99616;;;8.79;83.90
57250;BME280;43102;52.014;-0.680;2023-03-12T03:22:00;99617;;;8.77;84.12
57250;BME280;43102;52.014;-0.680;2023-03-12T03:23:00;99617;;;8.77;84.12
57250;BME280;43102;52.014;-0.680;2023-03-12T03:24:00;99617;;;8.77;84.12
57250;BME280;43102;52.014;-0.680;2023-03-12T03:25:00;99617;;;8.77;84.12
57250;BME280;43102;52.014;-0.680;2023-03-12T03:26:00;99617;;;8.77;84.12
57250;BME280;43102;52.014;-0.680;2023-03-12T03:27:00;99627;;;8.72;83.56
57250;BME280;43102;52.014;-0.680;2023-03-12T03:28:00;99627;;;8.72;83.56
57250;BME280;43102;52.014;-0.680;2023-03-12T03:29:00;99627;;;8.72;83.56
57250;BME280;43102;52.014;-0.680;2023-03-12T03:30:00;99627;;;8.72;83.56
57250;BME280;43102;52.014;-0.680;2023-03-12T03:31:00;99627;;;8.72;83.56
57250;BME280;43102;52.014;-0.680;2023-03-12T03:32:00;99647;;;8.71;83.40
57250;BME280;43102;52.014;-0.680;2023-03-12T03:33:00;99647;;;8.71;83.40
57250;BME280;43102;52.014;-0.680;2023-03-12T03:34:00;99647;;;8.71;83.40
57250;BME280;43102;52.014;-0.680;2023-03-12T03:35:00;99647;;;8.71;83.40
57250;BME280;43102;52.014;-0.680;2023-03-12T03:36:00;99647;;;8.71;83.40
57250;BME280;43102;52.014;-0.680;2023-03-12T03:37:00;99656;;;8.72;83.58
57250;BME280;43102;52.014;-0.680;2023-03-12T03:38:00;99656;;;8.72;83.58
57250;BME280;43102;52.014;-0.680;2023-03-12T03:39:00;99656;;;8.72;83.58
57250;BME280;43102;52.014;-0.680;2023-03-12T03:40:00;99656;;;8.72;83.58
57250;BME280;43102;52.014;-0.680;2023-03-12T03:41:00;99656;;;8.72;83.58
57250;BME280;43102;52.014;-0.680;2023-03-12T03:42:00;99662;;;8.68;83.83
57250;BME280;43102;52.014;-0.680;2023-03-12T03:43:00;99662;;;8.68;83.83
57250;BME280;43102;52.014;-0.680;2023-03-12T03:44:00;99662;;;8.68;83.83
57250;BME280;43102;52.014;-0.680;2023-03-12T03:45:00;99662;;;8.68;83.83
57250;BME280;43102;52.014;-0.680;2023-03-12T03:46:01;99662;;;8.68;83.83
57250;BME280;43102;52.014;-0.680;2023-03-12T03:47:00;99665;;;8.72;83.64
57250;BME280;43102;52.014;-0.680;2023-03-12T03:48:00;99665;;;8.72;83.64
57250;BME280;43102;52.014;-0.680;2023-03-12T03:49:00;99665;;;8.72;83.64
57250;BME280;43102;52.014;-0.680;2023-03-12T03:50:00;99665;;;8.72;83.64
57250;BME280;43102;52.014;-0.680;2023-03-12T03:51:00;99665;;;8.72;83.64
57250;BME280;43102;52.014;-0.680;2023-03-12T03:52:00;99667;;;8.74;83.65
57250;BME280;43102;52.014;-0.680;2023-03-12T03:53:00;99667;;;8.74;83.65
57250;BME280;43102;52.014;-0.680;2023-03-12T03:54:00;99667;;;8.74;83.65
57250;BME280;43102;52.014;-0.680;2023-03-12T03:55:00;99667;;;8.74;83.65
57250;BME280;43102;52.014;-0.680;2023-03-12T03:56:04;99667;;;8.74;83.65
57250;BME280;43102;52.014;-0.680;2023-03-12T03:57:00;99687;;;8.70;83.81
57250;BME280;43102;52.014;-0.680;2023-03-12T03:58:00;99687;;;8.70;83.81
57250;BME280;43102;52.014;-0.680;2023-03-12T03:59:00;99687;;;8.70;83.81
57250;BME280;43102;52.014;-0.680;2023-03-12T04:00:00;99687;;;8.70;83.81
57250;BME280;43102;52.014;-0.680;2023-03-12T04:01:00;99687;;;8.70;83.81
57250;BME280;43102;52.014;-0.680;2023-03-12T04:02:00;99692;;;8.67;84.21
57250;BME280;43102;52.014;-0.680;2023-03-12T04:03:00;99692;;;8.67;84.21
57250;BME280;43102;52.014;-0.680;2023-03-12T04:04:00;99692;;;8.67;84.21
57250;BME280;43102;52.014;-0.680;2023-03-12T04:05:00;99692;;;8.67;84.21
57250;BME280;43102;52.014;-0.680;2023-03-12T04:06:01;99692;;;8.67;84.21
57250;BME280;43102;52.014;-0.680;2023-03-12T04:07:00;99698;;;8.74;84.09
57250;BME280;43102;52.014;-0.680;2023-03-12T04:08:00;99698;;;8.74;84.09
57250;BME280;43102;52.014;-0.680;2023-03-12T04:09:00;99698;;;8.74;84.09
57250;BME280;43102;52.014;-0.680;2023-03-12T04:10:00;99698;;;8.74;84.09
57250;BME280;43102;52.014;-0.680;2023-03-12T04:11:09;99698;;;8.74;84.09
57250;BME280;43102;52.014;-0.680;2023-03-12T04:12:00;99703;;;8.72;83.87
57250;BME280;43102;52.014;-0.680;2023-03-12T04:13:00;99703;;;8.72;83.87
57250;BME280;43102;52.014;-0.680;2023-03-12T04:14:00;99703;;;8.72;83.87
57250;BME280;43102;52.014;-0.680;2023-03-12T04:15:00;99703;;;8.72;83.87
57250;BME280;43102;52.014;-0.680;2023-03-12T04:16:00;99703;;;8.72;83.87
57250;BME280;43102;52.014;-0.680;2023-03-12T04:17:00;99708;;;8.70;83.67
57250;BME280;43102;52.014;-0.680;2023-03-12T04:18:00;99708;;;8.70;83.67
57250;BME280;43102;52.014;-0.680;2023-03-12T04:19:00;99708;;;8.70;83.67
57250;BME280;43102;52.014;-0.680;2023-03-12T04:20:00;99708;;;8.70;83.67
57250;BME280;43102;52.014;-0.680;2023-03-12T04:21:00;99708;;;8.70;83.67
57250;BME280;43102;52.014;-0.680;2023-03-12T04:22:00;99712;;;8.71;83.99
57250;BME280;43102;52.014;-0.680;2023-03-12T04:23:00;99712;;;8.71;83.99
57250;BME280;43102;52.014;-0.680;2023-03-12T04:24:00;99712;;;8.71;83.99
57250;BME280;43102;52.014;-0.680;2023-03-12T04:25:00;99712;;;8.71;83.99
57250;BME280;43102;52.014;-0.680;2023-03-12T04:26:00;99712;;;8.71;83.99
57250;BME280;43102;52.014;-0.680;2023-03-12T04:27:00;99715;;;8.74;83.76
57250;BME280;43102;52.014;-0.680;2023-03-12T04:28:00;99715;;;8.74;83.76
57250;BME280;43102;52.014;-0.680;2023-03-12T04:29:00;99715;;;8.74;83.76
57250;BME280;43102;52.014;-0.680;2023-03-12T04:30:00;99715;;;8.74;83.76
57250;BME280;43102;52.014;-0.680;2023-03-12T04:31:01;99715;;;8.74;83.76
57250;BME280;43102;52.014;-0.680;2023-03-12T04:32:00;99711;;;8.73;83.53
57250;BME280;43102;52.014;-0.680;2023-03-12T04:33:00;99711;;;8.73;83.53
57250;BME280;43102;52.014;-0.680;2023-03-12T04:34:00;99711;;;8.73;83.53
57250;BME280;43102;52.014;-0.680;2023-03-12T04:35:00;99711;;;8.73;83.53
57250;BME280;43102;52.014;-0.680;2023-03-12T04:36:00;99711;;;8.73;83.53
57250;BME280;43102;52.014;-0.680;2023-03-12T04:37:00;99708;;;8.73;83.53
57250;BME280;43102;52.014;-0.680;2023-03-12T04:38:00;99708;;;8.73;83.53
57250;BME280;43102;52.014;-0.680;2023-03-12T04:39:00;99708;;;8.73;83.53
57250;BME280;43102;52.014;-0.680;2023-03-12T04:40:00;99708;;;8.73;83.53
57250;BME280;43102;52.014;-0.680;2023-03-12T04:41:01;99708;;;8.73;83.53
57250;BME280;43102;52.014;-0.680;2023-03-12T04:42:00;99730;;;8.74;83.53
57250;BME280;43102;52.014;-0.680;2023-03-12T04:43:00;99730;;;8.74;83.53
57250;BME280;43102;52.014;-0.680;2023-03-12T04:44:00;99730;;;8.74;83.53
57250;BME280;43102;52.014;-0.680;2023-03-12T04:45:00;99730;;;8.74;83.53
57250;BME280;43102;52.014;-0.680;2023-03-12T04:46:00;99730;;;8.74;83.53
57250;BME280;43102;52.014;-0.680;2023-03-12T04:47:00;99727;;;8.73;83.64
57250;BME280;43102;52.014;-0.680;2023-03-12T04:48:00;99727;;;8.73;83.64
57250;BME280;43102;52.014;-0.680;2023-03-12T04:49:00;99727;;;8.73;83.64
57250;BME280;43102;52.014;-0.680;2023-03-12T04:50:00;99727;;;8.73;83.64
57250;BME280;43102;52.014;-0.680;2023-03-12T04:51:00;99727;;;8.73;83.64
57250;BME280;43102;52.014;-0.680;2023-03-12T04:52:00;99732;;;8.77;84.07
57250;BME280;43102;52.014;-0.680;2023-03-12T04:53:00;99732;;;8.77;84.07
57250;BME280;43102;52.014;-0.680;2023-03-12T04:54:00;99732;;;8.77;84.07
57250;BME280;43102;52.014;-0.680;2023-03-12T04:55:00;99732;;;8.77;84.07
57250;BME280;43102;52.014;-0.680;2023-03-12T04:56:00;99732;;;8.77;84.07
57250;BME280;43102;52.014;-0.680;2023-03-12T04:57:00;99746;;;8.70;83.99
57250;BME280;43102;52.014;-0.680;2023-03-12T04:58:00;99746;;;8.70;83.99
57250;BME280;43102;52.014;-0.680;2023-03-12T04:59:00;99746;;;8.70;83.99
57250;BME280;43102;52.014;-0.680;2023-03-12T05:00:00;99746;;;8.70;83.99
57250;BME280;43102;52.014;-0.680;2023-03-12T05:01:00;99746;;;8.70;83.99
57250;BME280;43102;52.014;-0.680;2023-03-12T05:02:00;99752;;;8.74;83.91
57250;BME280;43102;52.014;-0.680;2023-03-12T05:03:00;99752;;;8.74;83.91
57250;BME280;43102;52.014;-0.680;2023-03-12T05:04:00;99752;;;8.74;83.91
57250;BME280;43102;52.014;-0.680;2023-03-12T05:05:00;99752;;;8.74;83.91
57250;BME280;43102;52.014;-0.680;2023-03-12T05:06:00;99752;;;8.74;83.91
57250;BME280;43102;52.014;-0.680;2023-03-12T05:07:00;99771;;;8.85;83.42
57250;BME280;43102;52.014;-0.680;2023-03-12T05:08:00;99771;;;8.85;83.42
57250;BME280;43102;52.014;-0.680;2023-03-12T05:09:00;99771;;;8.85;83.42
57250;BME280;43102;52.014;-0.680;2023-03-12T05:10:00;99771;;;8.85;83.42
57250;BME280;43102;52.014;-0.680;2023-03-12T05:11:00;99771;;;8.85;83.42
57250;BME280;43102;52.014;-0.680;2023-03-12T05:12:00;99785;;;8.92;83.30
57250;BME280;43102;52.014;-0.680;2023-03-12T05:13:00;99785;;;8.92;83.30
57250;BME280;43102;52.014;-0.680;2023-03-12T05:14:00;99785;;;8.92;83.30
57250;BME280;43102;52.014;-0.680;2023-03-12T05:15:00;99785;;;8.92;83.30
57250;BME280;43102;52.014;-0.680;2023-03-12T05:16:00;99785;;;8.92;83.30
57250;BME280;43102;52.014;-0.680;2023-03-12T05:17:00;99783;;;8.93;83.26
57250;BME280;43102;52.014;-0.680;2023-03-12T05:18:00;99783;;;8.93;83.26
57250;BME280;43102;52.014;-0.680;2023-03-12T05:19:00;99783;;;8.93;83.26
57250;BME280;43102;52.014;-0.680;2023-03-12T05:20:00;99783;;;8.93;83.26
57250;BME280;43102;52.014;-0.680;2023-03-12T05:21:01;99783;;;8.93;83.26
57250;BME280;43102;52.014;-0.680;2023-03-12T05:22:00;99785;;;8.93;83.55
57250;BME280;43102;52.014;-0.680;2023-03-12T05:23:00;99785;;;8.93;83.55
57250;BME280;43102;52.014;-0.680;2023-03-12T05:24:00;99785;;;8.93;83.55
57250;BME280;43102;52.014;-0.680;2023-03-12T05:25:00;99785;;;8.93;83.55
57250;BME280;43102;52.014;-0.680;2023-03-12T05:26:00;99785;;;8.93;83.55
57250;BME280;43102;52.014;-0.680;2023-03-12T05:27:00;99800;;;8.94;83.32
57250;BME280;43102;52.014;-0.680;2023-03-12T05:28:00;99800;;;8.94;83.32
57250;BME280;43102;52.014;-0.680;2023-03-12T05:29:00;99800;;;8.94;83.32
57250;BME280;43102;52.014;-0.680;2023-03-12T05:30:00;99800;;;8.94;83.32
57250;BME280;43102;52.014;-0.680;2023-03-12T05:31:00;99800;;;8.94;83.32
57250;BME280;43102;52.014;-0.680;2023-03-12T05:32:00;99800;;;8.96;83.07
57250;BME280;43102;52.014;-0.680;2023-03-12T05:33:00;99800;;;8.96;83.07
57250;BME280;43102;52.014;-0.680;2023-03-12T05:34:01;99800;;;8.96;83.07
57250;BME280;43102;52.014;-0.680;2023-03-12T05:35:00;99800;;;8.96;83.07
57250;BME280;43102;52.014;-0.680;2023-03-12T05:36:00;99800;;;8.96;83.07